Time;durP1;ratioP1;P1;durP2;ratioP2;P2;SDS_P1;SDS_P2;PMS_P1;PMS_P2;Temp;Humidity;BMP_temperature;BMP_pressure;BME280_temperature;BME280_humidity;BME280_pressure;Samples;Min_cycle;Max_cycle;Signal;HPM_P1;HPM_P2
2022/01/10 00:00:24;;;;;;;22.63;4.80;;;7.80;57.00;;;;;;4975985;28;20027;-59
2022/01/10 00:02:54;;;;;;;21.13;4.13;;;7.70;57.10;;;;;;4977178;28;20023;-57
2022/01/10 00:05:21;;;;;;;18.42;4.43;;;7.70;57.10;;;;;;4961201;28;20422;-57
2022/01/10 00:07:47;;;;;;;14.98;4.32;;;7.70;57.20;;;;;;4976552;28;20383;-59
2022/01/10 00:10:14;;;;;;;21.35;5.00;;;7.70;57.20;;;;;;4976529;28;20045;-57
2022/01/10 00:12:40;;;;;;;13.95;3.95;;;7.60;57.20;;;;;;4977882;28;20041;-59
2022/01/10 00:15:08;;;;;;;16.85;4.43;;;7.60;57.30;;;;;;4978692;28;20041;-58
2022/01/10 00:17:39;;;;;;;21.50;3.85;;;7.60;57.30;;;;;;4971413;28;20034;-59
2022/01/10 00:20:07;;;;;;;16.77;3.88;;;7.60;57.40;;;;;;4976936;28;20038;-59
2022/01/10 00:22:34;;;;;;;15.57;4.10;;;7.50;57.40;;;;;;4978173;28;20391;-55
2022/01/10 00:25:01;;;;;;;20.77;4.38;;;7.50;57.50;;;;;;4977776;28;20475;-57
2022/01/10 00:27:27;;;;;;;23.48;5.38;;;7.50;57.60;;;;;;4971950;28;20030;-56
2022/01/10 00:29:53;;;;;;;16.92;4.15;;;7.50;57.60;;;;;;4979206;28;20034;-59
2022/01/10 00:32:20;;;;;;;12.95;3.97;;;7.50;57.60;;;;;;4960917;28;20521;-57
2022/01/10 00:34:46;;;;;;;12.05;3.42;;;7.50;57.60;;;;;;4977506;28;20026;-59
2022/01/10 00:37:12;;;;;;;18.48;3.58;;;7.60;57.70;;;;;;4971505;28;20046;-59
2022/01/10 00:39:38;;;;;;;16.30;4.20;;;7.50;57.70;;;;;;4974589;28;20128;-59
2022/01/10 00:42:04;;;;;;;21.05;4.63;;;7.50;57.70;;;;;;4976566;28;20058;-59
2022/01/10 00:44:37;;;;;;;17.83;3.88;;;7.50;57.80;;;;;;4978948;28;20023;-58
2022/01/10 00:47:03;;;;;;;13.55;3.78;;;7.50;57.80;;;;;;4975297;28;20053;-59
2022/01/10 00:49:29;;;;;;;15.50;3.85;;;7.50;57.80;;;;;;4975316;28;20556;-59
2022/01/10 00:51:56;;;;;;;15.73;3.72;;;7.50;57.90;;;;;;4979226;28;20027;-59
2022/01/10 00:54:22;;;;;;;19.63;4.32;;;7.50;57.80;;;;;;4982310;28;20049;-59
2022/01/10 00:56:48;;;;;;;17.35;4.53;;;7.50;57.90;;;;;;4979591;28;20030;-58
2022/01/10 00:59:14;;;;;;;17.98;4.32;;;7.50;57.80;;;;;;4975129;28;20041;-58
2022/01/10 01:01:41;;;;;;;20.33;3.92;;;7.50;57.90;;;;;;4979756;28;20026;-59
2022/01/10 01:04:07;;;;;;;21.80;4.30;;;7.50;57.90;;;;;;4982978;28;20028;-59
2022/01/10 01:06:34;;;;;;;16.88;3.90;;;7.40;57.80;;;;;;4980594;28;20440;-58
2022/01/10 01:09:05;;;;;;;17.67;3.97;;;7.40;57.90;;;;;;4977858;28;20046;-57
2022/01/10 01:12:08;;;;;;;17.92;4.72;;;7.40;57.90;;;;;;4980037;28;20049;-54
2022/01/10 01:15:17;;;;;;;14.57;3.88;;;7.40;57.90;;;;;;4981921;28;20547;-57
2022/01/10 01:17:12;;;;;;;14.93;3.97;;;7.30;57.90;;;;;;4967559;28;20514;-59
2022/01/10 01:25:10;;;;;;;16.45;4.15;;;7.20;57.80;;;;;;4982533;28;20037;-59
2022/01/10 01:27:37;;;;;;;14.40;3.75;;;7.20;57.80;;;;;;4977036;28;20387;-59
2022/01/10 01:30:05;;;;;;;18.25;4.43;;;7.10;57.80;;;;;;4981891;28;20030;-59
2022/01/10 01:32:31;;;;;;;19.60;4.93;;;7.10;57.90;;;;;;4981153;28;20027;-58
2022/01/10 01:35:04;;;;;;;17.83;4.28;;;7.10;57.90;;;;;;4961744;28;20042;-59
2022/01/10 01:37:30;;;;;;;15.10;4.05;;;7.00;57.90;;;;;;4973736;28;20431;-59
2022/01/10 01:39:57;;;;;;;17.77;4.53;;;7.00;57.90;;;;;;4980960;28;20030;-56
2022/01/10 01:42:36;;;;;;;21.05;4.07;;;7.00;58.40;;;;;;4976248;28;20403;-56
2022/01/10 01:45:05;;;;;;;23.15;3.92;;;6.90;58.00;;;;;;4983237;28;20030;-59
2022/01/10 01:47:31;;;;;;;18.67;4.10;;;6.90;58.10;;;;;;4977226;28;20034;-56
2022/01/10 01:49:59;;;;;;;20.77;4.28;;;6.90;58.20;;;;;;4979657;28;20045;-57
2022/01/10 01:52:26;;;;;;;18.05;3.92;;;6.90;58.30;;;;;;4981428;28;20410;-59
2022/01/10 01:54:53;;;;;;;15.90;4.53;;;6.90;58.50;;;;;;4980888;28;20023;-59
2022/01/10 01:57:20;;;;;;;14.85;3.70;;;6.90;58.50;;;;;;4974266;28;20037;-56
2022/01/10 01:59:46;;;;;;;22.80;4.60;;;6.90;59.00;;;;;;4976354;28;20041;-57
2022/01/10 02:02:12;;;;;;;26.45;4.78;;;6.90;58.60;;;;;;4971517;28;20035;-56
2022/01/10 02:04:39;;;;;;;20.70;4.63;;;6.80;58.50;;;;;;4973523;28;20414;-59
2022/01/10 02:07:05;;;;;;;20.63;4.50;;;6.90;58.50;;;;;;4959780;28;20047;-55
2022/01/10 02:09:32;;;;;;;17.08;4.30;;;6.80;58.50;;;;;;4981114;28;20026;-56
2022/01/10 02:11:58;;;;;;;14.85;4.07;;;6.80;58.50;;;;;;4979513;28;20034;-57
2022/01/10 02:14:24;;;;;;;24.20;4.38;;;6.80;58.50;;;;;;4981083;28;20041;-57
2022/01/10 02:16:56;;;;;;;15.20;3.63;;;6.80;58.50;;;;;;4974096;28;20035;-58
2022/01/10 02:19:23;;;;;;;20.83;4.32;;;6.80;58.60;;;;;;4977709;28;20054;-57
2022/01/10 02:21:50;;;;;;;19.65;4.90;;;6.80;58.50;;;;;;4982330;28;20022;-57
2022/01/10 02:24:16;;;;;;;16.65;4.55;;;6.70;58.50;;;;;;4976940;28;20031;-59
2022/01/10 02:26:49;;;;;;;11.68;3.78;;;6.70;58.50;;;;;;4979482;28;20049;-59
2022/01/10 02:29:17;;;;;;;17.27;4.65;;;6.60;58.50;;;;;;4975079;28;20277;-59
2022/01/10 02:31:44;;;;;;;15.30;3.92;;;6.60;58.50;;;;;;4978607;28;20034;-59
2022/01/10 02:34:11;;;;;;;16.35;4.55;;;6.60;58.50;;;;;;4979889;28;20043;-57
2022/01/10 02:36:37;;;;;;;23.52;4.32;;;6.60;58.50;;;;;;4977845;28;20038;-59
2022/01/10 02:39:08;;;;;;;21.50;4.82;;;6.50;58.50;;;;;;4967145;28;20369;-59
2022/01/10 02:41:40;;;;;;;16.70;4.20;;;6.50;58.50;;;;;;4981036;28;20046;-56
2022/01/10 02:44:17;;;;;;;15.70;4.40;;;6.50;58.60;;;;;;4980777;28;20041;-59
2022/01/10 02:46:45;;;;;;;15.65;4.22;;;6.40;58.60;;;;;;4975812;28;20026;-59
2022/01/10 02:49:22;;;;;;;17.13;4.75;;;6.40;58.60;;;;;;4973681;28;20030;-59
2022/01/10 02:51:48;;;;;;;16.85;4.45;;;6.30;58.60;;;;;;4981811;28;20398;-58
2022/01/10 02:54:14;;;;;;;26.17;4.88;;;6.30;58.80;;;;;;4978573;28;20050;-57
2022/01/10 02:56:53;;;;;;;16.67;4.32;;;6.30;58.80;;;;;;4962379;28;20503;-56
2022/01/10 02:59:21;;;;;;;16.67;3.92;;;6.30;58.90;;;;;;4976580;28;20366;-57
2022/01/10 03:01:48;;;;;;;13.82;4.28;;;6.20;58.90;;;;;;4975350;28;20037;-56
2022/01/10 03:04:15;;;;;;;22.08;5.00;;;6.20;59.00;;;;;;4979237;28;20042;-57
2022/01/10 03:06:42;;;;;;;20.17;4.82;;;6.20;59.00;;;;;;4979565;28;20038;-57
2022/01/10 03:09:10;;;;;;;22.67;4.43;;;6.20;59.10;;;;;;4978122;28;20030;-59
2022/01/10 03:11:39;;;;;;;19.38;4.40;;;6.10;59.20;;;;;;4979687;28;20487;-58
2022/01/10 03:14:05;;;;;;;25.23;4.72;;;6.10;59.20;;;;;;4963911;28;20042;-56
2022/01/10 03:16:32;;;;;;;15.07;3.60;;;6.10;59.20;;;;;;4970371;28;20035;-59
2022/01/10 03:18:58;;;;;;;20.40;4.97;;;6.10;59.20;;;;;;4972688;28;20049;-59
2022/01/10 03:21:25;;;;;;;15.20;3.60;;;6.10;59.30;;;;;;4977833;28;20043;-57
2022/01/10 03:23:52;;;;;;;25.90;4.88;;;6.10;59.30;;;;;;4979153;28;20030;-58
2022/01/10 03:26:19;;;;;;;16.20;4.25;;;6.00;59.30;;;;;;4980969;28;20018;-56
2022/01/10 03:28:45;;;;;;;14.95;3.80;;;6.00;59.30;;;;;;4975484;28;20038;-56
2022/01/10 03:31:12;;;;;;;14.02;4.22;;;6.00;59.40;;;;;;4958043;28;20034;-57
2022/01/10 03:33:38;;;;;;;17.70;4.18;;;6.00;59.40;;;;;;4976361;28;20033;-57
2022/01/10 03:36:04;;;;;;;18.38;4.35;;;5.90;59.40;;;;;;4958217;28;20586;-55
2022/01/10 03:38:30;;;;;;;13.65;4.47;;;5.90;59.40;;;;;;4962279;28;20499;-57
2022/01/10 03:40:57;;;;;;;15.85;4.40;;;5.90;59.40;;;;;;4976199;28;20046;-57
2022/01/10 03:43:23;;;;;;;17.60;4.00;;;5.90;59.50;;;;;;4980238;28;20486;-56
2022/01/10 03:45:49;;;;;;;14.35;4.25;;;5.90;59.50;;;;;;4976899;28;20390;-56
2022/01/10 03:48:16;;;;;;;16.13;4.45;;;5.80;59.50;;;;;;4971694;28;20037;-57
2022/01/10 03:50:42;;;;;;;15.65;3.75;;;5.80;59.60;;;;;;4977174;28;20390;-57
2022/01/10 03:53:08;;;;;;;26.27;4.70;;;5.80;59.70;;;;;;4977386;28;20525;-57
2022/01/10 03:55:34;;;;;;;17.75;4.93;;;5.80;59.80;;;;;;4979346;28;20049;-58
2022/01/10 03:58:00;;;;;;;15.52;4.32;;;5.80;59.80;;;;;;4973224;28;20049;-56
2022/01/10 04:00:27;;;;;;;28.60;5.75;;;5.80;59.80;;;;;;4975762;28;20458;-56
2022/01/10 04:02:59;;;;;;;12.70;3.88;;;5.70;59.80;;;;;;4978175;28;20031;-55
2022/01/10 04:05:25;;;;;;;23.33;5.38;;;5.70;59.80;;;;;;4978488;28;20042;-58
2022/01/10 04:07:52;;;;;;;20.40;4.28;;;5.70;59.90;;;;;;4974752;28;20414;-55
2022/01/10 04:10:18;;;;;;;15.48;4.35;;;5.70;59.90;;;;;;4978956;28;20475;-53
2022/01/10 04:12:44;;;;;;;16.45;4.03;;;5.60;59.90;;;;;;4980247;28;20041;-56
2022/01/10 04:15:11;;;;;;;21.10;5.00;;;5.60;59.90;;;;;;4977965;28;20042;-57
2022/01/10 04:17:37;;;;;;;18.50;4.65;;;5.60;60.00;;;;;;4972365;28;20038;-58
2022/01/10 04:20:05;;;;;;;18.85;4.50;;;5.60;60.00;;;;;;4981288;28;20115;-56
2022/01/10 04:22:31;;;;;;;20.30;4.75;;;5.60;59.90;;;;;;4981847;28;20727;-56
2022/01/10 04:24:57;;;;;;;16.80;4.10;;;5.60;59.90;;;;;;4982635;28;20022;-55
2022/01/10 04:27:24;;;;;;;20.42;4.47;;;5.50;59.80;;;;;;4979628;28;20031;-57
2022/01/10 04:29:50;;;;;;;21.23;4.35;;;5.50;59.70;;;;;;4977258;28;20376;-55
2022/01/10 04:32:17;;;;;;;20.30;4.72;;;5.50;59.70;;;;;;4974450;28;20042;-55
2022/01/10 04:34:44;;;;;;;18.77;5.15;;;5.50;59.70;;;;;;4982754;28;20027;-55
2022/01/10 04:37:10;;;;;;;15.38;4.13;;;5.40;59.80;;;;;;4977651;28;20047;-56
2022/01/10 04:39:36;;;;;;;15.60;4.70;;;5.40;59.80;;;;;;4984183;28;20041;-58
2022/01/10 04:42:03;;;;;;;23.67;5.95;;;5.30;59.90;;;;;;4982509;28;20072;-55
2022/01/10 04:44:29;;;;;;;24.52;6.32;;;5.30;60.00;;;;;;4984347;28;20436;-55
2022/01/10 04:46:55;;;;;;;41.28;17.90;;;5.30;60.10;;;;;;4960397;28;20050;-56
2022/01/10 04:49:24;;;;;;;50.55;22.48;;;5.30;60.10;;;;;;4977788;28;20026;-56
2022/01/10 04:51:51;;;;;;;63.30;28.58;;;5.20;60.00;;;;;;4981033;28;20023;-56
2022/01/10 04:54:18;;;;;;;35.67;16.35;;;5.20;60.20;;;;;;4982298;28;20042;-54
2022/01/10 04:56:45;;;;;;;33.20;16.17;;;5.20;60.20;;;;;;4978209;28;20045;-57
2022/01/10 04:59:12;;;;;;;29.48;13.73;;;5.20;60.30;;;;;;4973626;28;20376;-57
2022/01/10 05:01:38;;;;;;;16.65;8.02;;;5.10;60.30;;;;;;4976935;28;20034;-55
2022/01/10 05:04:05;;;;;;;22.92;6.80;;;5.10;60.40;;;;;;4983779;28;20034;-56
2022/01/10 05:06:31;;;;;;;16.83;5.22;;;5.10;60.50;;;;;;4981449;28;20033;-57
2022/01/10 05:08:57;;;;;;;16.80;4.95;;;5.10;60.50;;;;;;4979774;28;20030;-57
2022/01/10 05:11:23;;;;;;;18.67;4.90;;;5.00;60.50;;;;;;4982945;28;20050;-59
2022/01/10 05:13:49;;;;;;;23.42;5.63;;;5.00;60.60;;;;;;4981459;28;20030;-57
2022/01/10 05:16:18;;;;;;;18.05;4.85;;;5.00;60.60;;;;;;4967842;28;20037;-58
2022/01/10 05:18:44;;;;;;;21.52;5.40;;;5.00;60.80;;;;;;4970899;28;20053;-55
2022/01/10 05:21:12;;;;;;;16.88;5.10;;;5.00;61.10;;;;;;4979272;28;20037;-56
2022/01/10 05:23:38;;;;;;;14.77;5.15;;;5.00;61.30;;;;;;4980960;28;20550;-59
2022/01/10 05:26:06;;;;;;;23.33;6.82;;;5.00;61.60;;;;;;4979654;28;20371;-54
2022/01/10 05:28:32;;;;;;;43.30;17.80;;;5.10;61.80;;;;;;4977938;28;20884;-57
2022/01/10 05:31:00;;;;;;;80.88;28.60;;;5.10;62.00;;;;;;4975503;28;20046;-58
2022/01/10 05:33:27;;;;;;;41.38;15.30;;;5.10;62.20;;;;;;4976095;28;20046;-56
2022/01/10 05:35:53;;;;;;;22.90;8.30;;;5.20;62.40;;;;;;4968538;28;20967;-56
2022/01/10 05:38:19;;;;;;;22.58;6.00;;;5.20;62.40;;;;;;4973743;28;20490;-57
2022/01/10 05:40:46;;;;;;;16.80;5.15;;;5.30;62.60;;;;;;4979111;28;20034;-57
2022/01/10 05:43:12;;;;;;;18.88;5.88;;;5.30;62.60;;;;;;4980649;28;20474;-56
2022/01/10 05:45:43;;;;;;;18.08;5.35;;;5.40;62.60;;;;;;4949117;28;20391;-55
2022/01/10 05:48:12;;;;;;;22.48;5.65;;;5.40;62.60;;;;;;4977380;28;20057;-59
2022/01/10 05:50:41;;;;;;;14.50;5.03;;;5.50;62.50;;;;;;4980105;28;20018;-55
2022/01/10 05:53:09;;;;;;;14.52;5.28;;;5.50;62.30;;;;;;4976017;28;20049;-58
2022/01/10 05:55:37;;;;;;;19.88;5.30;;;5.50;62.30;;;;;;4980587;28;20026;-53
2022/01/10 05:58:04;;;;;;;17.73;5.40;;;5.50;62.30;;;;;;4972329;28;20027;-56
2022/01/10 06:00:30;;;;;;;18.52;5.10;;;5.60;62.30;;;;;;4951184;28;20049;-56
2022/01/10 06:02:57;;;;;;;20.27;5.50;;;5.60;62.20;;;;;;4977052;28;20035;-58
2022/01/10 06:05:29;;;;;;;23.27;5.65;;;5.70;62.20;;;;;;4976790;28;20037;-57
2022/01/10 06:07:55;;;;;;;22.00;6.20;;;5.70;62.20;;;;;;4974238;28;20022;-57
2022/01/10 06:10:21;;;;;;;16.20;4.90;;;5.70;62.10;;;;;;4975217;28;20038;-59
2022/01/10 06:12:47;;;;;;;18.88;5.28;;;5.70;62.00;;;;;;4977674;28;20039;-56
2022/01/10 06:15:13;;;;;;;21.67;5.57;;;5.70;61.90;;;;;;4978331;28;20764;-56
2022/01/10 06:17:40;;;;;;;35.15;6.53;;;5.70;61.90;;;;;;4975578;28;20051;-56
2022/01/10 06:20:06;;;;;;;23.83;5.85;;;5.80;61.90;;;;;;4980856;28;20041;-57
2022/01/10 06:22:33;;;;;;;15.80;5.13;;;5.80;61.90;;;;;;4975774;28;20050;-54
2022/01/10 06:24:59;;;;;;;21.92;5.63;;;5.80;61.80;;;;;;4975867;28;20031;-57
2022/01/10 06:27:26;;;;;;;21.95;6.65;;;5.80;61.90;;;;;;4974092;28;20035;-56
2022/01/10 06:29:52;;;;;;;20.05;6.55;;;5.90;62.00;;;;;;4979504;28;20030;-58
2022/01/10 06:32:18;;;;;;;22.60;6.32;;;5.80;62.00;;;;;;4976079;28;20031;-57
2022/01/10 06:34:45;;;;;;;21.27;5.45;;;5.90;62.00;;;;;;4978503;28;20049;-56
2022/01/10 06:37:11;;;;;;;16.67;5.85;;;5.90;62.00;;;;;;4977324;28;20049;-57
2022/01/10 06:39:37;;;;;;;18.38;6.78;;;5.90;62.00;;;;;;4979943;28;20026;-58
2022/01/10 06:42:04;;;;;;;16.63;6.00;;;5.90;61.90;;;;;;4974647;28;20373;-57
2022/01/10 06:44:31;;;;;;;22.33;5.70;;;6.00;62.00;;;;;;4949698;28;20548;-57
2022/01/10 06:46:57;;;;;;;21.17;6.25;;;6.00;61.90;;;;;;4958609;28;20039;-56
2022/01/10 06:49:23;;;;;;;25.83;6.57;;;6.00;61.90;;;;;;4977890;28;20018;-57
2022/01/10 06:51:49;;;;;;;18.00;6.25;;;6.00;61.90;;;;;;4977064;28;20034;-58
2022/01/10 06:54:16;;;;;;;19.45;6.10;;;6.00;61.90;;;;;;4972608;28;20030;-58
2022/01/10 06:56:42;;;;;;;18.83;6.55;;;6.00;61.90;;;;;;4976581;28;20382;-55
2022/01/10 06:59:08;;;;;;;28.05;7.15;;;6.10;61.90;;;;;;4974650;28;20475;-57
2022/01/10 07:01:35;;;;;;;21.77;6.63;;;6.10;61.90;;;;;;4970563;28;20375;-57
2022/01/10 07:04:02;;;;;;;20.33;6.80;;;6.00;61.90;;;;;;4973646;28;20390;-57
2022/01/10 07:06:28;;;;;;;23.33;7.57;;;6.10;62.10;;;;;;4975393;28;20019;-58
2022/01/10 07:08:54;;;;;;;19.63;6.68;;;6.10;62.10;;;;;;4966153;28;20030;-57
2022/01/10 07:11:20;;;;;;;21.27;6.82;;;6.10;62.20;;;;;;4976650;28;20583;-58
2022/01/10 07:13:46;;;;;;;20.33;6.40;;;6.10;62.10;;;;;;4978152;28;20480;-57
2022/01/10 07:16:13;;;;;;;17.88;6.28;;;6.20;62.20;;;;;;4974642;28;20475;-59
2022/01/10 07:18:40;;;;;;;16.40;6.13;;;6.10;62.00;;;;;;4975479;28;20061;-55
2022/01/10 07:21:06;;;;;;;17.58;6.57;;;6.20;62.00;;;;;;4975325;28;20467;-58
2022/01/10 07:23:33;;;;;;;26.90;7.28;;;6.20;61.80;;;;;;4978691;28;20395;-56
2022/01/10 07:25:59;;;;;;;11.82;6.35;;;6.20;61.70;;;;;;4974715;28;20033;-58
2022/01/10 07:28:25;;;;;;;19.50;7.40;;;6.20;61.60;;;;;;4947289;28;20046;-55
2022/01/10 07:30:51;;;;;;;17.83;7.13;;;6.20;61.70;;;;;;4970171;28;20554;-58
2022/01/10 07:33:17;;;;;;;17.20;7.22;;;6.20;61.70;;;;;;4979107;28;20410;-56
2022/01/10 07:35:43;;;;;;;21.58;7.70;;;6.20;61.80;;;;;;4974583;28;20486;-56
2022/01/10 07:38:10;;;;;;;18.13;7.38;;;6.20;61.70;;;;;;4976602;28;20129;-57
2022/01/10 07:40:36;;;;;;;20.73;7.30;;;6.20;61.70;;;;;;4971958;28;20045;-57
2022/01/10 07:43:02;;;;;;;19.75;7.70;;;6.20;61.70;;;;;;4977985;28;20376;-57
2022/01/10 07:45:29;;;;;;;23.63;7.88;;;6.20;61.60;;;;;;4970448;28;20027;-56
2022/01/10 07:47:55;;;;;;;23.08;8.98;;;6.20;61.60;;;;;;4975760;28;20037;-57
2022/01/10 07:50:23;;;;;;;23.35;8.80;;;6.20;61.70;;;;;;4974353;28;20406;-57
2022/01/10 07:52:49;;;;;;;22.30;8.25;;;6.20;61.70;;;;;;4977575;28;20027;-57
2022/01/10 07:55:15;;;;;;;17.33;7.68;;;6.20;61.80;;;;;;4961830;28;20101;-56
2022/01/10 07:57:42;;;;;;;23.73;8.55;;;6.20;61.80;;;;;;4972756;28;20404;-57
2022/01/10 08:00:09;;;;;;;22.58;10.40;;;6.20;61.70;;;;;;4971697;28;20045;-56
2022/01/10 08:02:35;;;;;;;30.08;10.10;;;6.20;61.60;;;;;;4974705;28;20030;-56
2022/01/10 08:05:01;;;;;;;24.65;9.63;;;6.20;61.70;;;;;;4974196;28;20039;-57
2022/01/10 08:07:28;;;;;;;32.60;9.90;;;6.20;61.80;;;;;;4974198;28;20093;-57
2022/01/10 08:09:54;;;;;;;36.45;9.68;;;6.20;62.00;;;;;;4974914;28;20027;-57
2022/01/10 08:12:20;;;;;;;22.80;9.82;;;6.30;62.10;;;;;;4976541;28;20029;-57
2022/01/10 08:14:48;;;;;;;17.85;7.20;;;6.30;62.20;;;;;;4957474;28;20063;-56
2022/01/10 08:17:14;;;;;;;19.20;7.10;;;6.30;62.20;;;;;;4972021;28;20034;-57
2022/01/10 08:19:41;;;;;;;14.45;6.25;;;6.30;62.20;;;;;;4957232;28;20034;-58
2022/01/10 08:22:07;;;;;;;23.02;8.10;;;6.30;62.30;;;;;;4974425;28;20543;-57
2022/01/10 08:24:33;;;;;;;18.98;7.70;;;6.30;62.30;;;;;;4974191;28;20046;-55
2022/01/10 08:26:59;;;;;;;16.10;6.47;;;6.30;62.30;;;;;;4975805;28;20030;-57
2022/01/10 08:29:26;;;;;;;15.90;6.60;;;6.40;62.40;;;;;;4961434;28;20046;-56
2022/01/10 08:31:52;;;;;;;19.08;7.75;;;6.40;62.30;;;;;;4970585;28;20402;-56
2022/01/10 08:34:19;;;;;;;17.17;8.85;;;6.40;62.30;;;;;;4969845;28;20027;-57
2022/01/10 08:36:45;;;;;;;21.27;9.05;;;6.50;62.20;;;;;;4974413;28;20038;-57
2022/01/10 08:39:12;;;;;;;18.77;9.18;;;6.40;62.00;;;;;;4951238;28;20049;-56
2022/01/10 08:41:38;;;;;;;19.52;8.82;;;6.50;62.00;;;;;;4970964;28;20035;-58
2022/01/10 08:44:05;;;;;;;21.95;10.20;;;6.50;61.90;;;;;;4970057;28;20033;-57
2022/01/10 08:46:31;;;;;;;24.70;10.07;;;6.50;61.80;;;;;;4971805;28;20041;-56
2022/01/10 08:48:58;;;;;;;25.95;10.90;;;6.50;61.80;;;;;;4966927;28;20391;-58
2022/01/10 08:51:24;;;;;;;25.13;10.98;;;6.50;61.80;;;;;;4956246;28;20366;-57
2022/01/10 08:53:51;;;;;;;25.00;9.82;;;6.50;61.80;;;;;;4971303;28;20031;-53
2022/01/10 08:56:18;;;;;;;25.38;9.88;;;6.40;61.70;;;;;;4968255;28;20035;-56
2022/01/10 08:58:44;;;;;;;31.83;9.32;;;6.50;61.70;;;;;;4968212;28;20029;-57
2022/01/10 09:01:10;;;;;;;23.90;8.80;;;6.40;61.60;;;;;;4969462;28;20382;-58
2022/01/10 09:03:37;;;;;;;24.92;9.18;;;6.40;61.60;;;;;;4969545;28;20407;-57
2022/01/10 09:06:04;;;;;;;21.88;8.60;;;6.40;61.70;;;;;;4972651;28;20862;-57
2022/01/10 09:08:35;;;;;;;23.77;8.90;;;6.40;61.60;;;;;;4969862;28;20392;-56
2022/01/10 09:11:02;;;;;;;21.77;9.20;;;6.40;61.70;;;;;;4975708;28;20037;-57
2022/01/10 09:13:29;;;;;;;22.08;9.88;;;6.40;61.70;;;;;;4976901;28;20023;-54
2022/01/10 09:15:55;;;;;;;24.33;9.40;;;6.40;61.80;;;;;;4977073;28;20616;-55
2022/01/10 09:18:21;;;;;;;109.72;39.55;;;6.40;62.00;;;;;;4973879;28;20037;-56
2022/01/10 09:20:48;;;;;;;55.85;21.30;;;6.40;62.10;;;;;;4973195;28;20030;-58
2022/01/10 09:23:15;;;;;;;31.52;12.10;;;6.50;62.20;;;;;;4974552;28;20498;-55
2022/01/10 09:25:41;;;;;;;24.90;10.77;;;6.50;62.20;;;;;;4976758;28;20023;-56
2022/01/10 09:28:07;;;;;;;26.05;10.55;;;6.50;62.30;;;;;;4961399;28;20042;-58
2022/01/10 09:30:33;;;;;;;23.25;10.75;;;6.50;62.20;;;;;;4974933;28;20051;-58
2022/01/10 09:33:00;;;;;;;26.67;9.93;;;6.50;62.20;;;;;;4975637;28;20034;-58
2022/01/10 09:35:26;;;;;;;25.13;10.45;;;6.60;62.30;;;;;;4976191;28;20035;-56
2022/01/10 09:37:52;;;;;;;26.95;10.60;;;6.60;62.20;;;;;;4973899;28;20034;-58
2022/01/10 09:40:18;;;;;;;28.35;11.10;;;6.60;62.20;;;;;;4973309;28;20043;-58
2022/01/10 09:42:45;;;;;;;24.70;10.73;;;6.60;62.10;;;;;;4974433;28;20395;-54
2022/01/10 09:45:12;;;;;;;27.50;10.52;;;6.60;62.10;;;;;;4958898;28;20046;-56
2022/01/10 09:47:38;;;;;;;26.90;10.65;;;6.70;62.10;;;;;;4960413;28;20045;-56
2022/01/10 09:50:08;;;;;;;24.52;9.77;;;6.60;62.10;;;;;;4962170;28;20034;-58
2022/01/10 09:52:35;;;;;;;24.85;10.10;;;6.60;62.80;;;;;;4968909;28;20406;-57
2022/01/10 09:55:02;;;;;;;23.80;10.63;;;6.60;62.10;;;;;;4964525;28;20038;-56
2022/01/10 09:57:28;;;;;;;24.33;11.50;;;6.60;62.10;;;;;;4977587;28;20039;-56
2022/01/10 09:59:54;;;;;;;24.83;10.65;;;6.70;62.20;;;;;;4976048;28;20391;-55
2022/01/10 10:02:21;;;;;;;25.65;11.68;;;6.70;62.20;;;;;;4972979;28;20049;-56
2022/01/10 10:04:47;;;;;;;27.95;12.48;;;6.70;62.30;;;;;;4973562;28;20046;-57
2022/01/10 10:07:15;;;;;;;25.73;12.68;;;6.70;62.30;;;;;;4970969;28;20487;-55
2022/01/10 10:09:41;;;;;;;32.30;14.57;;;6.70;62.40;;;;;;4974971;28;20106;-58
2022/01/10 10:12:08;;;;;;;35.72;13.45;;;6.70;62.40;;;;;;4975094;28;20046;-55
2022/01/10 10:14:34;;;;;;;31.85;12.98;;;6.70;62.40;;;;;;4976292;28;20023;-58
2022/01/10 10:17:08;;;;;;;40.47;13.07;;;6.70;62.40;;;;;;4973744;28;20038;-55
2022/01/10 10:19:34;;;;;;;29.23;13.85;;;6.70;62.50;;;;;;4976187;28;20026;-57
2022/01/10 10:22:01;;;;;;;37.20;14.30;;;6.70;62.50;;;;;;4977085;28;20045;-55
2022/01/10 10:24:27;;;;;;;35.47;14.15;;;6.80;62.60;;;;;;4972130;28;20042;-57
2022/01/10 10:26:55;;;;;;;31.98;13.38;;;6.80;62.70;;;;;;4974007;28;20049;-56
2022/01/10 10:29:21;;;;;;;30.33;12.98;;;6.80;62.70;;;;;;4952655;28;20038;-57
2022/01/10 10:31:50;;;;;;;36.20;13.32;;;6.80;62.80;;;;;;4973286;28;20749;-58
2022/01/10 10:34:27;;;;;;;30.98;13.45;;;6.80;62.80;;;;;;4976096;28;20026;-59
2022/01/10 10:37:09;;;;;;;33.72;13.15;;;6.90;62.90;;;;;;4974999;28;20122;-58
2022/01/10 10:39:41;;;;;;;25.23;11.55;;;6.90;62.90;;;;;;4972541;28;20484;-57
2022/01/10 10:42:10;;;;;;;25.30;10.80;;;6.90;62.90;;;;;;4972987;28;20045;-59
2022/01/10 10:44:37;;;;;;;26.38;10.98;;;7.00;62.80;;;;;;4975476;28;20026;-56
2022/01/10 10:47:03;;;;;;;29.73;11.80;;;7.00;62.60;;;;;;4973664;28;20038;-58
2022/01/10 10:49:35;;;;;;;28.00;10.68;;;7.00;62.50;;;;;;4973572;28;20034;-57
2022/01/10 10:52:06;;;;;;;29.90;11.35;;;7.00;62.40;;;;;;4975309;28;20042;-58
2022/01/10 10:54:33;;;;;;;37.88;12.60;;;7.10;62.40;;;;;;4978281;28;20379;-58
2022/01/10 10:57:02;;;;;;;28.85;10.73;;;7.10;62.50;;;;;;4975385;28;20501;-58
2022/01/10 10:59:30;;;;;;;28.73;11.35;;;7.10;62.30;;;;;;4975069;28;20785;-56
2022/01/10 11:01:58;;;;;;;27.38;10.07;;;7.20;62.20;;;;;;4974324;28;20593;-57
2022/01/10 11:04:25;;;;;;;27.73;10.55;;;7.20;62.20;;;;;;4975317;28;20026;-55
2022/01/10 11:06:51;;;;;;;22.65;8.93;;;7.20;62.20;;;;;;4972010;28;20478;-57
2022/01/10 11:09:18;;;;;;;28.15;10.02;;;7.20;62.20;;;;;;4976300;28;20026;-58
2022/01/10 11:11:46;;;;;;;33.70;11.55;;;7.30;62.20;;;;;;4960070;28;20392;-55
2022/01/10 11:14:16;;;;;;;22.58;10.65;;;7.30;62.10;;;;;;4978823;28;20030;-57
2022/01/10 11:16:46;;;;;;;22.98;10.10;;;7.30;61.90;;;;;;4973991;28;20517;-56
2022/01/10 11:19:18;;;;;;;28.58;11.48;;;7.40;61.90;;;;;;4975426;28;20030;-57
2022/01/10 11:22:01;;;;;;;32.28;12.25;;;7.40;61.80;;;;;;4976353;28;20049;-58
2022/01/10 11:24:52;;;;;;;22.75;10.88;;;7.40;61.60;;;;;;4957793;28;20033;-57
2022/01/10 11:27:27;;;;;;;29.52;10.77;;;7.50;61.50;;;;;;4973565;28;20058;-57
2022/01/10 11:29:56;;;;;;;19.88;9.73;;;7.50;61.50;;;;;;4977241;28;20033;-57
2022/01/10 11:32:54;;;;;;;22.35;11.05;;;7.50;61.50;;;;;;4973760;28;20041;-59
2022/01/10 11:35:20;;;;;;;25.83;11.25;;;7.50;61.50;;;;;;4978681;28;20026;-56
2022/01/10 11:37:46;;;;;;;33.90;11.45;;;7.60;61.50;;;;;;4972168;28;20507;-57
2022/01/10 11:40:15;;;;;;;28.02;10.82;;;7.60;62.00;;;;;;4977458;28;20031;-56
2022/01/10 11:42:46;;;;;;;26.73;11.35;;;7.60;61.10;;;;;;4977919;28;20022;-58
2022/01/10 11:45:15;;;;;;;21.90;9.40;;;7.60;61.10;;;;;;4976625;28;20030;-54
2022/01/10 11:48:04;;;;;;;29.00;9.80;;;7.60;61.10;;;;;;4972593;28;20021;-59
2022/01/10 11:50:32;;;;;;;23.20;9.25;;;7.70;60.90;;;;;;4978546;28;20037;-57
2022/01/10 11:53:02;;;;;;;20.00;9.10;;;7.70;61.00;;;;;;4978225;28;20034;-59
2022/01/10 11:55:53;;;;;;;28.40;9.57;;;7.70;60.80;;;;;;4969230;28;20531;-56
2022/01/10 11:58:23;;;;;;;24.40;10.13;;;7.70;60.70;;;;;;4967583;28;20403;-57
2022/01/10 12:00:52;;;;;;;24.55;9.27;;;7.80;60.70;;;;;;4972187;28;20023;-55
2022/01/10 12:03:20;;;;;;;26.65;9.50;;;7.80;60.70;;;;;;4972228;28;20034;-59
2022/01/10 12:05:46;;;;;;;24.25;9.45;;;7.80;60.60;;;;;;4974113;28;20035;-58
2022/01/10 12:08:13;;;;;;;20.70;9.13;;;7.80;60.60;;;;;;4972047;28;20035;-58
2022/01/10 12:10:39;;;;;;;23.80;8.68;;;7.80;60.40;;;;;;4974350;28;20026;-55
2022/01/10 12:13:11;;;;;;;23.73;9.65;;;7.90;60.40;;;;;;4976501;28;20027;-57
2022/01/10 12:15:38;;;;;;;26.42;9.77;;;7.90;60.20;;;;;;4979150;28;20035;-56
2022/01/10 12:18:06;;;;;;;25.98;9.38;;;7.90;60.10;;;;;;4973451;28;20030;-57
2022/01/10 12:20:33;;;;;;;28.83;10.07;;;7.90;60.00;;;;;;4973761;28;20042;-57
2022/01/10 12:23:00;;;;;;;25.88;9.32;;;8.00;59.80;;;;;;4976169;28;20023;-58
2022/01/10 12:25:27;;;;;;;22.13;9.02;;;8.00;59.80;;;;;;4972514;28;20037;-58
2022/01/10 12:28:00;;;;;;;22.63;9.57;;;8.00;59.70;;;;;;4968260;28;20031;-58
2022/01/10 12:30:26;;;;;;;27.52;9.07;;;8.00;59.70;;;;;;4971325;28;20807;-57
2022/01/10 12:32:53;;;;;;;25.05;8.95;;;8.00;59.80;;;;;;4972588;28;20042;-57
2022/01/10 12:35:20;;;;;;;23.02;8.73;;;8.00;59.70;;;;;;4977172;28;20026;-55
2022/01/10 12:37:46;;;;;;;22.98;8.55;;;8.00;59.70;;;;;;4974751;28;20436;-56
2022/01/10 12:40:14;;;;;;;24.13;8.90;;;8.00;59.60;;;;;;4979115;28;20482;-58
2022/01/10 12:42:45;;;;;;;21.67;9.50;;;8.10;59.60;;;;;;4980632;28;20041;-53
2022/01/10 12:45:11;;;;;;;21.40;8.73;;;8.10;59.60;;;;;;4961112;28;20057;-55
2022/01/10 12:47:42;;;;;;;32.45;9.60;;;8.00;59.60;;;;;;4976168;28;20034;-56
2022/01/10 12:50:08;;;;;;;17.30;8.48;;;8.10;59.40;;;;;;4983488;28;20491;-55
2022/01/10 12:52:35;;;;;;;20.75;8.18;;;8.10;59.30;;;;;;4976848;28;20038;-56